createdAt,value
2018-12-20T00:01:42.844Z,20.70
2018-12-20T00:04:11.619Z,15.30
2018-12-20T00:06:40.466Z,18.53
2018-12-20T00:09:09.355Z,14.73
2018-12-20T00:11:38.244Z,21.70
2018-12-20T00:14:07.087Z,15.37
2018-12-20T00:16:35.988Z,15.00
2018-12-20T00:19:04.843Z,32.57
2018-12-20T00:21:33.611Z,19.40
2018-12-20T00:24:02.344Z,18.00
2018-12-20T00:26:31.126Z,17.37
2018-12-20T00:28:59.896Z,16.27
2018-12-20T00:31:28.635Z,15.43
2018-12-20T00:33:57.370Z,16.60
2018-12-20T00:36:26.082Z,17.57
2018-12-20T00:38:54.907Z,18.60
2018-12-20T00:41:23.745Z,16.13
2018-12-20T00:43:52.689Z,16.80
2018-12-20T00:46:21.526Z,17.70
2018-12-20T00:48:50.303Z,16.20
2018-12-20T00:51:19.167Z,17.93
2018-12-20T00:53:48.149Z,15.67
2018-12-20T00:56:17.184Z,14.33
2018-12-20T00:58:45.985Z,17.97
2018-12-20T01:01:14.912Z,16.70
2018-12-20T01:03:43.651Z,19.23
2018-12-20T01:06:12.378Z,15.53
2018-12-20T01:08:41.445Z,18.00
2018-12-20T01:11:10.186Z,19.13
2018-12-20T01:13:38.977Z,17.33
2018-12-20T01:16:07.939Z,15.97
2018-12-20T01:18:36.985Z,18.70
2018-12-20T01:21:05.882Z,19.43
2018-12-20T01:23:34.702Z,18.50
2018-12-20T01:26:03.465Z,20.40
2018-12-20T01:28:32.324Z,16.40
2018-12-20T01:31:01.166Z,20.73
2018-12-20T01:33:30.018Z,19.60
2018-12-20T01:35:58.983Z,17.10
2018-12-20T01:38:27.823Z,17.10
2018-12-20T01:40:57.844Z,17.30
2018-12-20T01:43:26.660Z,20.00
2018-12-20T01:45:55.499Z,18.40
2018-12-20T01:48:24.247Z,18.53
2018-12-20T01:50:52.955Z,18.00
2018-12-20T01:53:21.815Z,17.77
2018-12-20T01:55:50.739Z,19.93
2018-12-20T01:58:19.588Z,18.53
2018-12-20T02:00:48.446Z,20.17
2018-12-20T02:03:17.322Z,21.53
2018-12-20T02:05:46.167Z,18.77
2018-12-20T02:08:15.065Z,20.10
2018-12-20T02:10:43.764Z,19.67
2018-12-20T02:13:12.528Z,22.90
2018-12-20T02:15:41.404Z,22.03
2018-12-20T02:18:10.240Z,17.83
2018-12-20T02:20:39.218Z,19.43
2018-12-20T02:23:08.117Z,19.67
2018-12-20T02:25:36.976Z,19.97
2018-12-20T02:28:05.766Z,18.40
2018-12-20T02:30:34.971Z,21.90
2018-12-20T02:33:03.739Z,18.47
2018-12-20T02:35:32.555Z,21.33
2018-12-20T02:38:01.274Z,20.47
2018-12-20T02:40:30.128Z,21.20
2018-12-20T02:42:58.983Z,21.10
2018-12-20T02:45:27.798Z,19.67
2018-12-20T02:47:56.716Z,18.70
2018-12-20T02:50:25.552Z,21.07
2018-12-20T02:52:54.506Z,17.97
2018-12-20T02:55:23.397Z,21.80
2018-12-20T02:57:52.134Z,17.63
2018-12-20T03:00:21.012Z,18.77
2018-12-20T03:02:49.765Z,20.70
2018-12-20T03:05:18.498Z,21.40
2018-12-20T03:07:47.517Z,22.97
2018-12-20T03:10:16.690Z,24.67
2018-12-20T03:12:46.025Z,19.33
2018-12-20T03:15:19.872Z,22.73
2018-12-20T03:17:45.348Z,26.03
2018-12-20T03:20:14.129Z,25.57
2018-12-20T03:22:43.454Z,20.90
2018-12-20T03:25:12.232Z,22.07
2018-12-20T03:27:40.883Z,25.50
2018-12-20T03:30:09.628Z,23.97
2018-12-20T03:32:38.995Z,17.73
2018-12-20T03:35:08.149Z,21.20
2018-12-20T03:37:36.988Z,21.40
2018-12-20T03:40:05.768Z,25.10
2018-12-20T03:42:34.492Z,20.00
2018-12-20T03:45:03.403Z,20.67
2018-12-20T03:47:32.312Z,21.90
2018-12-20T03:50:01.189Z,22.07
2018-12-20T03:52:30.080Z,22.80
2018-12-20T03:54:58.829Z,23.00
2018-12-20T03:57:27.498Z,22.30
2018-12-20T03:59:56.269Z,19.43
2018-12-20T04:02:25.431Z,21.30
2018-12-20T04:04:54.157Z,21.20
2018-12-20T04:07:23.053Z,23.17
2018-12-20T04:09:51.946Z,25.17
2018-12-20T04:12:20.798Z,22.73
2018-12-20T04:14:49.550Z,24.83
2018-12-20T04:17:18.599Z,26.10
2018-12-20T04:19:47.327Z,22.87
2018-12-20T04:22:16.114Z,24.73
2018-12-20T04:24:44.932Z,22.63
2018-12-20T04:27:13.752Z,23.90
2018-12-20T04:29:42.457Z,22.47
2018-12-20T04:32:11.327Z,30.47
2018-12-20T04:34:40.417Z,24.23
2018-12-20T04:37:09.496Z,26.07
2018-12-20T04:39:38.349Z,22.87
2018-12-20T04:42:07.150Z,26.77
2018-12-20T04:44:36.066Z,24.70
2018-12-20T04:47:05.063Z,26.63
2018-12-20T04:49:34.056Z,26.47
2018-12-20T04:52:02.945Z,29.17
2018-12-20T04:54:31.733Z,23.10
2018-12-20T04:57:00.583Z,26.60
2018-12-20T04:59:29.612Z,24.93
2018-12-20T05:01:58.553Z,22.23
2018-12-20T05:04:27.348Z,24.53
2018-12-20T05:06:56.093Z,26.10
2018-12-20T05:09:24.930Z,23.90
2018-12-20T05:11:53.677Z,26.67
2018-12-20T05:14:22.448Z,25.57
2018-12-20T05:16:51.235Z,24.23
2018-12-20T05:19:20.154Z,30.80
2018-12-20T05:21:49.076Z,31.73
2018-12-20T05:24:17.908Z,24.60
2018-12-20T05:26:46.869Z,27.90
2018-12-20T05:29:15.947Z,27.20
2018-12-20T05:31:44.895Z,28.40
2018-12-20T05:34:13.679Z,27.27
2018-12-20T05:36:42.580Z,23.10
2018-12-20T05:39:11.579Z,26.20
2018-12-20T05:41:40.394Z,30.77
2018-12-20T05:44:09.429Z,25.37
2018-12-20T05:46:38.373Z,27.70
2018-12-20T05:49:07.081Z,23.43
2018-12-20T05:51:36.037Z,25.83
2018-12-20T05:54:04.942Z,27.40
2018-12-20T05:56:33.703Z,24.57
2018-12-20T05:59:02.457Z,33.03
2018-12-20T06:01:31.291Z,41.47
2018-12-20T06:04:00.031Z,28.03
2018-12-20T06:06:28.740Z,26.70
2018-12-20T06:08:57.427Z,24.97
2018-12-20T06:11:26.314Z,27.50
2018-12-20T06:13:55.344Z,25.80
2018-12-20T06:16:24.183Z,25.80
2018-12-20T06:18:53.163Z,25.93
2018-12-20T06:21:22.120Z,25.67
2018-12-20T06:23:50.953Z,24.50
2018-12-20T06:26:19.660Z,31.10
2018-12-20T06:28:48.375Z,28.90
2018-12-20T06:31:17.087Z,28.87
2018-12-20T06:33:45.821Z,28.57
2018-12-20T06:36:14.619Z,25.17
2018-12-20T06:38:43.411Z,25.17
2018-12-20T06:41:12.169Z,30.17
2018-12-20T06:43:40.911Z,34.50
2018-12-20T06:46:09.622Z,27.10
2018-12-20T06:48:38.335Z,29.77
2018-12-20T06:51:07.130Z,26.97
2018-12-20T06:53:35.858Z,29.47
2018-12-20T06:56:04.690Z,31.13
2018-12-20T06:58:33.415Z,30.83
2018-12-20T07:01:02.186Z,35.67
2018-12-20T07:03:31.050Z,34.27
2018-12-20T07:05:59.851Z,27.97
2018-12-20T07:08:28.506Z,34.73
2018-12-20T07:10:57.286Z,26.30
2018-12-20T07:13:26.004Z,31.57
2018-12-20T07:15:54.912Z,29.87
2018-12-20T07:18:23.594Z,33.00
2018-12-20T07:20:52.390Z,27.77
2018-12-20T07:23:21.126Z,30.30
2018-12-20T07:25:49.889Z,33.10
2018-12-20T07:28:18.594Z,28.33
2018-12-20T07:30:47.857Z,37.87
2018-12-20T07:33:16.621Z,30.33
2018-12-20T07:35:45.322Z,33.13
2018-12-20T07:38:14.087Z,32.33
2018-12-20T07:40:42.807Z,39.60
2018-12-20T07:43:11.594Z,35.63
2018-12-20T07:45:40.253Z,33.30
2018-12-20T07:48:08.994Z,35.50
2018-12-20T07:50:39.101Z,37.10
2018-12-20T07:53:07.871Z,32.67
2018-12-20T07:55:36.564Z,28.00
2018-12-20T07:58:05.368Z,32.07
2018-12-20T08:00:35.017Z,28.43
2018-12-20T08:03:03.822Z,29.70
2018-12-20T08:05:32.552Z,32.27
2018-12-20T08:08:01.351Z,34.70
2018-12-20T08:10:30.093Z,29.63
2018-12-20T08:12:58.868Z,34.63
2018-12-20T08:15:27.557Z,29.13
2018-12-20T08:17:56.274Z,30.43
2018-12-20T08:20:24.947Z,33.70
2018-12-20T08:22:53.785Z,34.03
2018-12-20T08:25:22.506Z,32.97
2018-12-20T08:27:51.230Z,41.90
2018-12-20T08:30:20.014Z,30.03
2018-12-20T08:32:48.671Z,32.27
2018-12-20T08:35:17.432Z,33.87
2018-12-20T08:37:46.168Z,34.97
2018-12-20T08:40:14.933Z,28.47
2018-12-20T08:42:43.707Z,40.27
2018-12-20T08:45:12.542Z,32.93
2018-12-20T08:47:41.336Z,37.50
2018-12-20T08:50:10.154Z,29.27
2018-12-20T08:52:38.815Z,31.57
2018-12-20T08:55:07.602Z,29.83
2018-12-20T08:57:36.262Z,34.20
2018-12-20T09:00:05.877Z,29.00
2018-12-20T09:02:34.551Z,30.97
2018-12-20T09:05:03.374Z,32.37
2018-12-20T09:07:32.099Z,34.50
2018-12-20T09:10:00.793Z,31.60
2018-12-20T09:12:29.588Z,32.47
2018-12-20T09:14:58.255Z,32.07
2018-12-20T09:17:26.895Z,29.53
2018-12-20T09:19:55.639Z,32.60
2018-12-20T09:22:24.358Z,31.13
2018-12-20T09:24:53.079Z,26.33
2018-12-20T09:27:21.911Z,34.83
2018-12-20T09:29:50.698Z,33.40
2018-12-20T09:32:19.460Z,30.03
2018-12-20T09:34:48.169Z,32.40
2018-12-20T09:37:16.940Z,31.13
2018-12-20T09:39:45.662Z,32.50
2018-12-20T09:42:14.372Z,34.37
2018-12-20T09:44:43.129Z,31.60
2018-12-20T09:48:15.937Z,30.23
2018-12-20T09:50:44.742Z,32.17
2018-12-20T09:53:13.522Z,30.80
2018-12-20T09:55:42.335Z,31.70
2018-12-20T09:58:11.061Z,34.27
2018-12-20T10:00:39.827Z,33.70
2018-12-20T10:03:08.559Z,37.33
2018-12-20T10:05:37.222Z,30.07
2018-12-20T10:08:06.022Z,34.63
2018-12-20T10:10:34.752Z,33.80
2018-12-20T10:13:03.579Z,34.00
2018-12-20T10:15:32.335Z,34.60
2018-12-20T10:18:01.075Z,35.30
2018-12-20T10:20:29.889Z,33.70
2018-12-20T10:22:58.611Z,28.90
2018-12-20T10:25:27.367Z,32.63
2018-12-20T10:27:56.098Z,32.10
2018-12-20T10:30:24.836Z,35.57
2018-12-20T10:32:53.569Z,35.67
2018-12-20T10:35:22.346Z,32.47
2018-12-20T10:37:51.086Z,32.27
2018-12-20T10:40:19.831Z,31.27
2018-12-20T10:42:48.646Z,36.87
2018-12-20T10:45:17.351Z,32.93
2018-12-20T10:47:46.095Z,27.87
2018-12-20T10:50:14.882Z,30.00
2018-12-20T10:52:43.666Z,34.73
2018-12-20T10:55:12.443Z,33.63
2018-12-20T10:57:41.259Z,32.53
2018-12-20T11:00:10.026Z,39.03
2018-12-20T11:02:44.162Z,31.97
2018-12-20T11:05:18.082Z,37.57
2018-12-20T11:07:52.175Z,35.77
2018-12-20T11:10:23.225Z,36.40
2018-12-20T11:12:52.015Z,32.07
2018-12-20T11:15:20.806Z,36.33
2018-12-20T11:17:49.829Z,34.67
2018-12-20T11:20:18.593Z,32.63
2018-12-20T11:22:47.462Z,32.80
2018-12-20T11:25:16.196Z,31.93
2018-12-20T11:27:45.330Z,36.27
2018-12-20T11:30:15.092Z,38.00
2018-12-20T11:32:43.746Z,33.50
2018-12-20T11:35:12.454Z,35.80
2018-12-20T11:37:41.147Z,43.40
2018-12-20T11:40:09.865Z,33.13
2018-12-20T11:42:38.551Z,33.20
2018-12-20T11:45:07.494Z,35.23
2018-12-20T11:47:36.222Z,38.30
2018-12-20T11:50:05.126Z,39.93
2018-12-20T11:52:42.164Z,37.43
2018-12-20T11:55:04.781Z,35.07
2018-12-20T11:57:33.610Z,39.67
2018-12-20T12:00:02.386Z,33.73
2018-12-20T12:02:31.114Z,43.73
2018-12-20T12:04:59.782Z,36.10
2018-12-20T12:07:28.507Z,36.90
2018-12-20T12:09:57.233Z,36.33
2018-12-20T12:12:25.944Z,30.23
2018-12-20T12:14:54.768Z,41.50
2018-12-20T12:17:23.566Z,33.60
2018-12-20T12:19:52.289Z,35.00
2018-12-20T12:22:21.244Z,32.30
2018-12-20T12:24:49.975Z,41.03
2018-12-20T12:27:18.684Z,33.83
2018-12-20T12:29:47.407Z,38.77
2018-12-20T12:32:16.238Z,31.53
2018-12-20T12:34:44.972Z,36.30
2018-12-20T12:37:13.678Z,32.60
2018-12-20T12:39:42.390Z,29.63
2018-12-20T12:42:11.146Z,40.20
2018-12-20T12:44:40.083Z,36.77
2018-12-20T12:47:10.931Z,32.17
2018-12-20T12:49:39.710Z,35.37
2018-12-20T12:52:08.438Z,41.73
2018-12-20T12:54:37.210Z,45.50
2018-12-20T12:57:06.002Z,38.13
2018-12-20T12:59:34.742Z,32.00
2018-12-20T13:02:03.459Z,32.87
2018-12-20T13:04:32.268Z,33.53
2018-12-20T13:07:01.236Z,33.50
2018-12-20T13:09:29.970Z,31.33
2018-12-20T13:11:58.775Z,46.20
2018-12-20T13:14:27.556Z,25.17
2018-12-20T13:16:56.359Z,24.70
2018-12-20T13:19:25.177Z,25.57
2018-12-20T13:21:54.002Z,25.43
2018-12-20T13:24:23.219Z,30.20
2018-12-20T13:26:52.027Z,24.00
2018-12-20T13:29:20.822Z,29.07
2018-12-20T13:31:49.482Z,24.23
2018-12-20T13:34:18.258Z,39.93
2018-12-20T13:36:46.986Z,30.03
2018-12-20T13:39:15.869Z,30.00
2018-12-20T13:41:44.607Z,25.63
2018-12-20T13:44:13.407Z,22.93
2018-12-20T13:46:42.226Z,22.93
2018-12-20T13:49:10.930Z,25.20
2018-12-20T13:51:40.413Z,29.37
2018-12-20T13:54:09.192Z,32.70
2018-12-20T13:56:37.902Z,33.30
2018-12-20T13:59:06.695Z,30.20
2018-12-20T14:01:35.414Z,26.60
2018-12-20T14:04:04.221Z,27.83
2018-12-20T14:06:32.990Z,28.63
2018-12-20T14:09:01.730Z,29.50
2018-12-20T14:11:31.483Z,32.57
2018-12-20T14:14:00.226Z,33.73
2018-12-20T14:16:28.978Z,27.30
2018-12-20T14:18:57.630Z,30.30
2018-12-20T14:21:26.422Z,32.10
2018-12-20T14:23:55.150Z,29.43
2018-12-20T14:26:23.938Z,29.17
2018-12-20T14:28:52.662Z,29.87
2018-12-20T14:31:21.461Z,30.87
2018-12-20T14:33:50.285Z,32.80
2018-12-20T14:36:19.039Z,32.80
2018-12-20T14:38:47.783Z,24.93
2018-12-20T14:41:16.627Z,24.83
2018-12-20T14:43:45.454Z,28.30
2018-12-20T14:46:14.247Z,28.30
2018-12-20T14:48:42.935Z,27.03
2018-12-20T14:51:11.858Z,41.53
2018-12-20T14:53:40.551Z,27.53
2018-12-20T14:56:09.331Z,33.47
2018-12-20T14:58:38.130Z,24.93
2018-12-20T15:01:06.810Z,26.73
2018-12-20T15:03:35.481Z,25.70
2018-12-20T15:06:04.309Z,23.23
2018-12-20T15:08:33.023Z,23.20
2018-12-20T15:11:01.903Z,29.77
2018-12-20T15:13:30.682Z,24.43
2018-12-20T15:15:59.495Z,20.40
2018-12-20T15:18:28.160Z,17.47
2018-12-20T15:20:56.934Z,21.47
2018-12-20T15:23:25.765Z,18.90
2018-12-20T15:25:54.514Z,19.77
2018-12-20T15:28:23.210Z,17.97
2018-12-20T15:30:52.082Z,19.93
2018-12-20T15:33:20.772Z,20.20
2018-12-20T15:35:49.663Z,17.07
2018-12-20T15:38:18.427Z,23.70
2018-12-20T15:40:47.274Z,21.20
2018-12-20T15:43:16.037Z,18.67
2018-12-20T15:45:44.823Z,23.30
2018-12-20T15:48:15.942Z,27.10
2018-12-20T15:50:44.850Z,23.27
2018-12-20T15:53:13.527Z,20.97
2018-12-20T15:55:42.315Z,22.47
2018-12-20T15:58:11.194Z,21.33
2018-12-20T16:00:40.062Z,21.50
2018-12-20T16:03:08.911Z,22.23
2018-12-20T16:05:37.838Z,23.67
2018-12-20T16:08:07.092Z,24.80
2018-12-20T16:10:36.746Z,21.20
2018-12-20T16:13:05.562Z,18.73
2018-12-20T16:15:34.360Z,20.33
2018-12-20T16:18:03.096Z,19.40
2018-12-20T16:20:31.925Z,20.07
2018-12-20T16:23:00.743Z,16.37
2018-12-20T16:25:29.519Z,19.03
2018-12-20T16:27:58.334Z,26.17
2018-12-20T16:30:27.127Z,19.47
2018-12-20T16:32:55.792Z,20.00
2018-12-20T16:35:24.597Z,25.30
2018-12-20T16:37:53.499Z,22.07
2018-12-20T16:40:22.219Z,19.10
2018-12-20T16:42:50.992Z,22.87
2018-12-20T16:45:19.790Z,20.07
2018-12-20T16:47:48.524Z,19.13
2018-12-20T16:50:17.310Z,21.73
2018-12-20T16:52:46.151Z,21.37
2018-12-20T16:55:15.023Z,18.87
2018-12-20T16:57:43.839Z,22.50
2018-12-20T17:00:13.746Z,23.90
2018-12-20T17:02:42.626Z,20.40
2018-12-20T17:05:12.603Z,22.30
2018-12-20T17:07:41.337Z,20.67
2018-12-20T17:10:10.122Z,21.97
2018-12-20T17:12:38.983Z,20.40
2018-12-20T17:15:07.803Z,21.43
2018-12-20T17:17:36.604Z,20.00
2018-12-20T17:20:07.477Z,25.07
2018-12-20T17:22:36.351Z,21.67
2018-12-20T17:25:05.154Z,21.80
2018-12-20T17:27:34.009Z,25.93
2018-12-20T17:30:02.891Z,19.87
2018-12-20T17:32:31.708Z,21.10
2018-12-20T17:35:00.539Z,20.37
2018-12-20T17:37:29.203Z,22.40
2018-12-20T17:39:57.898Z,20.53
2018-12-20T17:42:26.775Z,20.87
2018-12-20T17:44:56.640Z,27.10
2018-12-20T17:47:25.522Z,20.50
2018-12-20T17:49:54.316Z,24.83
2018-12-20T17:52:23.070Z,19.70
2018-12-20T17:54:51.803Z,20.77
2018-12-20T17:57:20.543Z,22.23
2018-12-20T17:59:49.458Z,27.20
2018-12-20T18:02:19.435Z,21.10
2018-12-20T18:04:48.235Z,19.53
2018-12-20T18:07:17.086Z,20.50
2018-12-20T18:09:47.037Z,21.93
2018-12-20T18:12:15.923Z,21.50
2018-12-20T18:14:44.834Z,27.13
2018-12-20T18:17:13.696Z,25.70
2018-12-20T18:19:42.397Z,23.37
2018-12-20T18:22:11.175Z,20.80
2018-12-20T18:24:39.970Z,18.13
2018-12-20T18:27:08.755Z,21.67
2018-12-20T18:29:37.538Z,29.90
2018-12-20T18:32:06.380Z,24.93
2018-12-20T18:34:35.147Z,20.37
2018-12-20T18:37:03.988Z,23.63
2018-12-20T18:39:32.754Z,20.53
2018-12-20T18:42:01.564Z,25.07
2018-12-20T18:44:30.311Z,18.03
2018-12-20T18:46:59.026Z,19.53
2018-12-20T18:49:27.843Z,18.10
2018-12-20T18:51:56.630Z,19.70
2018-12-20T18:54:25.422Z,17.80
2018-12-20T18:56:54.252Z,16.80
2018-12-20T18:59:23.001Z,19.73
2018-12-20T19:01:51.803Z,14.57
2018-12-20T19:04:20.550Z,16.50
2018-12-20T19:06:49.287Z,18.93
2018-12-20T19:09:18.042Z,20.40
2018-12-20T19:11:46.794Z,21.23
2018-12-20T19:14:16.351Z,18.40
2018-12-20T19:16:45.304Z,18.07
2018-12-20T19:19:14.039Z,16.23
2018-12-20T19:21:42.745Z,18.07
2018-12-20T19:24:11.636Z,17.93
2018-12-20T19:26:40.455Z,16.10
2018-12-20T19:29:09.142Z,22.13
2018-12-20T19:31:37.946Z,22.17
2018-12-20T19:34:06.870Z,17.10
2018-12-20T19:36:35.583Z,19.40
2018-12-20T19:39:07.630Z,26.40
2018-12-20T19:41:36.407Z,18.10
2018-12-20T19:44:05.243Z,24.03
2018-12-20T19:46:33.967Z,15.30
2018-12-20T19:49:02.751Z,20.00
2018-12-20T19:51:31.498Z,20.43
2018-12-20T19:54:00.227Z,14.37
2018-12-20T19:56:28.952Z,18.30
2018-12-20T19:58:57.778Z,16.70
2018-12-20T20:01:26.629Z,20.47
2018-12-20T20:03:55.442Z,18.93
2018-12-20T20:06:24.208Z,15.33
2018-12-20T20:08:53.074Z,22.00
2018-12-20T20:11:22.052Z,15.20
2018-12-20T20:13:50.834Z,18.20
2018-12-20T20:16:19.613Z,15.20
2018-12-20T20:18:48.435Z,15.90
2018-12-20T20:21:17.302Z,15.03
2018-12-20T20:23:46.010Z,16.73
2018-12-20T20:26:14.825Z,15.93
2018-12-20T20:28:43.448Z,20.60
2018-12-20T20:31:12.196Z,15.53
2018-12-20T20:33:41.124Z,12.80
2018-12-20T20:36:09.923Z,11.93
2018-12-20T20:38:38.707Z,16.90
2018-12-20T20:41:07.478Z,10.17
2018-12-20T20:43:36.190Z,11.87
2018-12-20T20:46:05.000Z,12.97
2018-12-20T20:48:33.670Z,18.13
2018-12-20T20:51:02.586Z,10.43
2018-12-20T20:53:31.351Z,12.47
2018-12-20T20:56:00.033Z,11.17
2018-12-20T20:58:28.939Z,15.43
2018-12-20T21:00:57.683Z,13.00
2018-12-20T21:03:26.474Z,16.60
2018-12-20T21:05:55.287Z,13.70
2018-12-20T21:08:23.933Z,16.80
2018-12-20T21:10:52.773Z,10.50
2018-12-20T21:13:21.516Z,9.50
2018-12-20T21:15:50.180Z,11.40
2018-12-20T21:18:18.918Z,9.10
2018-12-20T21:20:47.680Z,11.33
2018-12-20T21:23:16.426Z,10.50
2018-12-20T21:25:45.058Z,9.70
2018-12-20T21:28:13.846Z,10.63
2018-12-20T21:30:42.619Z,10.90
2018-12-20T21:33:11.502Z,11.27
2018-12-20T21:35:41.122Z,9.03
2018-12-20T21:38:09.902Z,11.70
2018-12-20T21:40:38.678Z,9.90
2018-12-20T21:43:07.478Z,10.47
2018-12-20T21:45:36.250Z,13.03
2018-12-20T21:48:05.003Z,11.53
2018-12-20T21:53:30.947Z,10.27
2018-12-20T21:55:59.657Z,10.80
2018-12-20T21:58:28.368Z,11.00
2018-12-20T22:00:57.141Z,9.90
2018-12-20T22:03:25.847Z,10.97
2018-12-20T22:05:54.686Z,13.90
2018-12-20T22:08:23.371Z,13.57
2018-12-20T22:10:52.087Z,13.07
2018-12-20T22:13:20.812Z,10.97
2018-12-20T22:15:49.530Z,15.03
2018-12-20T22:18:18.274Z,12.10
2018-12-20T22:20:47.442Z,17.23
2018-12-20T22:23:16.458Z,13.73
2018-12-20T22:25:45.175Z,12.20
2018-12-20T22:28:13.948Z,15.93
2018-12-20T22:30:42.662Z,12.07
2018-12-20T22:33:11.411Z,12.23
2018-12-20T22:35:40.210Z,15.03
2018-12-20T22:38:08.940Z,14.93
2018-12-20T22:40:37.724Z,13.30
2018-12-20T22:43:06.448Z,13.97
2018-12-20T22:45:36.254Z,13.03
2018-12-20T22:48:05.034Z,16.43
2018-12-20T22:50:33.841Z,18.73
2018-12-20T22:53:02.517Z,15.97
2018-12-20T22:55:31.240Z,14.20
2018-12-20T22:57:59.906Z,15.23
2018-12-20T23:00:28.728Z,14.80
2018-12-20T23:02:57.941Z,12.40
2018-12-20T23:05:26.587Z,20.13
2018-12-20T23:07:55.316Z,17.10
2018-12-20T23:10:24.120Z,16.30
2018-12-20T23:12:52.778Z,17.77
2018-12-20T23:15:21.514Z,19.10
2018-12-20T23:17:51.258Z,17.80
2018-12-20T23:20:20.007Z,16.80
2018-12-20T23:22:48.771Z,17.33
2018-12-20T23:25:17.483Z,20.77
2018-12-20T23:27:47.286Z,14.73
2018-12-20T23:30:16.226Z,16.30
2018-12-20T23:32:45.039Z,14.73
2018-12-20T23:35:13.838Z,16.87
2018-12-20T23:37:42.601Z,14.43
2018-12-20T23:40:11.388Z,15.30
2018-12-20T23:42:40.086Z,16.93
2018-12-20T23:45:08.903Z,22.27
2018-12-20T23:47:37.687Z,16.80
2018-12-20T23:50:06.463Z,14.67
2018-12-20T23:52:35.251Z,19.40
2018-12-20T23:55:04.434Z,18.97
2018-12-20T23:57:33.204Z,16.77
